sensor_id;sensor_type;location;lat;lon;timestamp;temperature;humidity
11140;DHT22;5624;49.388;11.350;2023-03-23T00:02:25;8.50;75.90
11140;DHT22;5624;49.388;11.350;2023-03-23T00:04:51;8.50;75.40
11140;DHT22;5624;49.388;11.350;2023-03-23T00:07:22;8.50;75.10
11140;DHT22;5624;49.388;11.350;2023-03-23T00:09:48;8.60;75.10
11140;DHT22;5624;49.388;11.350;2023-03-23T00:12:23;8.50;75.20
11140;DHT22;5624;49.388;11.350;2023-03-23T00:15:07;8.50;75.30
11140;DHT22;5624;49.388;11.350;2023-03-23T00:17:38;8.30;75.80
11140;DHT22;5624;49.388;11.350;2023-03-23T00:20:06;8.10;76.80
11140;DHT22;5624;49.388;11.350;2023-03-23T00:22:32;8.00;77.60
11140;DHT22;5624;49.388;11.350;2023-03-23T00:25:06;7.80;77.90
11140;DHT22;5624;49.388;11.350;2023-03-23T00:27:33;7.70;78.60
11140;DHT22;5624;49.388;11.350;2023-03-23T00:29:59;7.60;79.10
11140;DHT22;5624;49.388;11.350;2023-03-23T00:32:25;7.60;79.50
11140;DHT22;5624;49.388;11.350;2023-03-23T00:34:53;7.40;79.70
11140;DHT22;5624;49.388;11.350;2023-03-23T00:37:19;7.30;80.20
11140;DHT22;5624;49.388;11.350;2023-03-23T00:39:45;7.20;80.60
11140;DHT22;5624;49.388;11.350;2023-03-23T00:42:15;7.20;81.00
11140;DHT22;5624;49.388;11.350;2023-03-23T00:44:42;7.10;81.20
11140;DHT22;5624;49.388;11.350;2023-03-23T00:47:09;7.10;81.10
11140;DHT22;5624;49.388;11.350;2023-03-23T00:49:36;7.20;81.00
11140;DHT22;5624;49.388;11.350;2023-03-23T00:52:04;7.30;80.70
11140;DHT22;5624;49.388;11.350;2023-03-23T00:54:30;7.40;80.40
11140;DHT22;5624;49.388;11.350;2023-03-23T00:56:56;7.40;80.50
11140;DHT22;5624;49.388;11.350;2023-03-23T00:59:22;7.40;80.80
11140;DHT22;5624;49.388;11.350;2023-03-23T01:01:48;7.40;80.60
11140;DHT22;5624;49.388;11.350;2023-03-23T01:04:14;7.60;79.50
11140;DHT22;5624;49.388;11.350;2023-03-23T01:06:42;7.70;78.60
11140;DHT22;5624;49.388;11.350;2023-03-23T01:09:12;7.80;78.10
11140;DHT22;5624;49.388;11.350;2023-03-23T01:11:42;7.80;78.30
11140;DHT22;5624;49.388;11.350;2023-03-23T01:14:09;7.80;78.10
11140;DHT22;5624;49.388;11.350;2023-03-23T01:16:34;7.80;78.00
11140;DHT22;5624;49.388;11.350;2023-03-23T01:19:00;7.90;77.50
11140;DHT22;5624;49.388;11.350;2023-03-23T01:21:26;8.00;77.40
11140;DHT22;5624;49.388;11.350;2023-03-23T01:23:52;8.10;76.20
11140;DHT22;5624;49.388;11.350;2023-03-23T01:26:23;8.20;76.20
11140;DHT22;5624;49.388;11.350;2023-03-23T01:28:49;8.30;75.00
11140;DHT22;5624;49.388;11.350;2023-03-23T01:31:17;8.40;73.70
11140;DHT22;5624;49.388;11.350;2023-03-23T01:33:43;8.50;73.00
11140;DHT22;5624;49.388;11.350;2023-03-23T01:36:15;8.70;72.00
11140;DHT22;5624;49.388;11.350;2023-03-23T01:38:43;8.90;70.70
11140;DHT22;5624;49.388;11.350;2023-03-23T01:41:10;9.00;70.20
11140;DHT22;5624;49.388;11.350;2023-03-23T01:43:52;9.10;69.00
11140;DHT22;5624;49.388;11.350;2023-03-23T01:46:18;9.30;67.80
11140;DHT22;5624;49.388;11.350;2023-03-23T01:48:44;9.40;67.90
11140;DHT22;5624;49.388;11.350;2023-03-23T01:51:14;9.50;67.20
11140;DHT22;5624;49.388;11.350;2023-03-23T01:53:54;9.60;67.30
11140;DHT22;5624;49.388;11.350;2023-03-23T01:56:23;9.70;65.50
11140;DHT22;5624;49.388;11.350;2023-03-23T01:58:53;9.80;65.80
11140;DHT22;5624;49.388;11.350;2023-03-23T02:01:21;10.00;65.30
11140;DHT22;5624;49.388;11.350;2023-03-23T02:03:47;10.10;65.00
11140;DHT22;5624;49.388;11.350;2023-03-23T02:06:14;10.10;64.00
11140;DHT22;5624;49.388;11.350;2023-03-23T02:08:41;10.20;64.30
11140;DHT22;5624;49.388;11.350;2023-03-23T02:11:22;10.20;64.60
11140;DHT22;5624;49.388;11.350;2023-03-23T02:13:48;10.20;64.20
11140;DHT22;5624;49.388;11.350;2023-03-23T02:16:35;10.40;63.50
11140;DHT22;5624;49.388;11.350;2023-03-23T02:25:33;10.40;63.00
11140;DHT22;5624;49.388;11.350;2023-03-23T02:36:41;10.80;62.10
11140;DHT22;5624;49.388;11.350;2023-03-23T02:41:50;10.90;61.00
11140;DHT22;5624;49.388;11.350;2023-03-23T02:44:17;11.00;60.60
11140;DHT22;5624;49.388;11.350;2023-03-23T02:46:44;11.00;60.90
11140;DHT22;5624;49.388;11.350;2023-03-23T02:49:12;10.90;60.70
11140;DHT22;5624;49.388;11.350;2023-03-23T02:51:39;11.00;61.20
11140;DHT22;5624;49.388;11.350;2023-03-23T02:54:07;10.90;61.20
11140;DHT22;5624;49.388;11.350;2023-03-23T02:56:32;10.90;61.40
11140;DHT22;5624;49.388;11.350;2023-03-23T02:58:59;10.90;61.30
11140;DHT22;5624;49.388;11.350;2023-03-23T03:03:52;10.90;61.10
11140;DHT22;5624;49.388;11.350;2023-03-23T03:09:49;10.80;61.80
11140;DHT22;5624;49.388;11.350;2023-03-23T03:12:41;10.80;62.20
11140;DHT22;5624;49.388;11.350;2023-03-23T03:17:46;10.80;62.50
11140;DHT22;5624;49.388;11.350;2023-03-23T03:20:14;10.80;62.70
11140;DHT22;5624;49.388;11.350;2023-03-23T03:22:41;10.80;62.50
11140;DHT22;5624;49.388;11.350;2023-03-23T03:25:12;10.80;62.80
11140;DHT22;5624;49.388;11.350;2023-03-23T03:27:39;10.80;62.90
11140;DHT22;5624;49.388;11.350;2023-03-23T03:30:09;10.80;63.10
11140;DHT22;5624;49.388;11.350;2023-03-23T03:32:44;10.90;62.60
11140;DHT22;5624;49.388;11.350;2023-03-23T03:35:12;10.80;62.50
11140;DHT22;5624;49.388;11.350;2023-03-23T03:37:38;10.90;62.60
11140;DHT22;5624;49.388;11.350;2023-03-23T03:40:08;10.80;63.10
11140;DHT22;5624;49.388;11.350;2023-03-23T03:42:40;10.90;62.80
11140;DHT22;5624;49.388;11.350;2023-03-23T03:45:08;10.80;63.00
11140;DHT22;5624;49.388;11.350;2023-03-23T03:47:34;10.70;64.20
11140;DHT22;5624;49.388;11.350;2023-03-23T03:50:00;10.80;64.20
11140;DHT22;5624;49.388;11.350;2023-03-23T03:52:25;10.70;64.00
11140;DHT22;5624;49.388;11.350;2023-03-23T03:54:53;10.70;64.00
11140;DHT22;5624;49.388;11.350;2023-03-23T03:57:18;10.70;64.30
11140;DHT22;5624;49.388;11.350;2023-03-23T03:59:45;10.70;64.10
11140;DHT22;5624;49.388;11.350;2023-03-23T04:02:11;10.70;64.30
11140;DHT22;5624;49.388;11.350;2023-03-23T04:04:40;10.70;64.00
11140;DHT22;5624;49.388;11.350;2023-03-23T04:07:06;10.70;64.10
11140;DHT22;5624;49.388;11.350;2023-03-23T04:09:32;10.70;64.40
11140;DHT22;5624;49.388;11.350;2023-03-23T04:11:58;10.70;64.30
11140;DHT22;5624;49.388;11.350;2023-03-23T04:14:23;10.70;64.70
11140;DHT22;5624;49.388;11.350;2023-03-23T04:16:49;10.70;64.40
11140;DHT22;5624;49.388;11.350;2023-03-23T04:19:17;10.70;64.50
11140;DHT22;5624;49.388;11.350;2023-03-23T04:21:43;10.70;64.90
11140;DHT22;5624;49.388;11.350;2023-03-23T04:24:10;10.70;64.70
11140;DHT22;5624;49.388;11.350;2023-03-23T04:26:36;10.70;64.70
11140;DHT22;5624;49.388;11.350;2023-03-23T04:29:05;10.70;64.70
11140;DHT22;5624;49.388;11.350;2023-03-23T04:31:31;10.80;64.40
11140;DHT22;5624;49.388;11.350;2023-03-23T04:33:57;10.80;64.30
11140;DHT22;5624;49.388;11.350;2023-03-23T04:36:25;10.80;64.20
11140;DHT22;5624;49.388;11.350;2023-03-23T04:38:50;10.80;64.80
11140;DHT22;5624;49.388;11.350;2023-03-23T04:41:20;10.80;64.60
11140;DHT22;5624;49.388;11.350;2023-03-23T04:43:45;10.80;65.00
11140;DHT22;5624;49.388;11.350;2023-03-23T04:46:11;10.70;65.30
11140;DHT22;5624;49.388;11.350;2023-03-23T04:48:37;10.70;65.30
11140;DHT22;5624;49.388;11.350;2023-03-23T04:51:05;10.60;65.80
11140;DHT22;5624;49.388;11.350;2023-03-23T04:53:31;10.60;65.60
11140;DHT22;5624;49.388;11.350;2023-03-23T04:55:57;10.70;64.70
11140;DHT22;5624;49.388;11.350;2023-03-23T04:58:22;10.90;63.80
11140;DHT22;5624;49.388;11.350;2023-03-23T05:00:50;10.80;64.10
11140;DHT22;5624;49.388;11.350;2023-03-23T05:03:19;11.00;64.00
11140;DHT22;5624;49.388;11.350;2023-03-23T05:05:46;11.00;63.60
11140;DHT22;5624;49.388;11.350;2023-03-23T05:08:22;11.00;63.60
11140;DHT22;5624;49.388;11.350;2023-03-23T05:10:54;10.90;63.60
11140;DHT22;5624;49.388;11.350;2023-03-23T05:13:21;11.00;63.80
11140;DHT22;5624;49.388;11.350;2023-03-23T05:15:47;11.00;63.70
11140;DHT22;5624;49.388;11.350;2023-03-23T05:18:13;10.90;64.20
11140;DHT22;5624;49.388;11.350;2023-03-23T05:20:38;11.00;64.40
11140;DHT22;5624;49.388;11.350;2023-03-23T05:23:04;11.00;64.30
11140;DHT22;5624;49.388;11.350;2023-03-23T05:25:30;10.90;64.20
11140;DHT22;5624;49.388;11.350;2023-03-23T05:27:58;10.90;64.40
11140;DHT22;5624;49.388;11.350;2023-03-23T05:30:24;11.00;64.30
11140;DHT22;5624;49.388;11.350;2023-03-23T05:32:50;10.90;63.80
11140;DHT22;5624;49.388;11.350;2023-03-23T05:35:17;11.00;64.00
11140;DHT22;5624;49.388;11.350;2023-03-23T05:37:44;10.90;64.20
11140;DHT22;5624;49.388;11.350;2023-03-23T05:40:11;11.00;63.90
11140;DHT22;5624;49.388;11.350;2023-03-23T05:42:38;11.00;63.40
11140;DHT22;5624;49.388;11.350;2023-03-23T05:45:07;11.00;63.30
11140;DHT22;5624;49.388;11.350;2023-03-23T05:47:34;11.00;63.80
11140;DHT22;5624;49.388;11.350;2023-03-23T05:50:00;10.90;63.90
11140;DHT22;5624;49.388;11.350;2023-03-23T05:52:26;11.00;64.10
11140;DHT22;5624;49.388;11.350;2023-03-23T05:54:52;10.90;63.90
11140;DHT22;5624;49.388;11.350;2023-03-23T05:57:19;11.00;63.50
11140;DHT22;5624;49.388;11.350;2023-03-23T05:59:47;11.10;63.10
11140;DHT22;5624;49.388;11.350;2023-03-23T06:02:13;11.20;62.70
11140;DHT22;5624;49.388;11.350;2023-03-23T06:04:39;11.20;62.90
11140;DHT22;5624;49.388;11.350;2023-03-23T06:07:06;11.30;62.90
11140;DHT22;5624;49.388;11.350;2023-03-23T06:09:32;11.30;62.30
11140;DHT22;5624;49.388;11.350;2023-03-23T06:11:57;11.30;63.30
11140;DHT22;5624;49.388;11.350;2023-03-23T06:14:23;11.30;62.80
11140;DHT22;5624;49.388;11.350;2023-03-23T06:16:49;11.40;62.70
11140;DHT22;5624;49.388;11.350;2023-03-23T06:19:14;11.50;62.30
11140;DHT22;5624;49.388;11.350;2023-03-23T06:21:41;11.40;62.50
11140;DHT22;5624;49.388;11.350;2023-03-23T06:24:07;11.40;62.50
11140;DHT22;5624;49.388;11.350;2023-03-23T06:26:35;11.30;63.30
11140;DHT22;5624;49.388;11.350;2023-03-23T06:29:02;11.30;63.00
11140;DHT22;5624;49.388;11.350;2023-03-23T06:31:30;11.30;63.20
11140;DHT22;5624;49.388;11.350;2023-03-23T06:33:58;11.30;63.40
11140;DHT22;5624;49.388;11.350;2023-03-23T06:36:24;11.30;63.80
11140;DHT22;5624;49.388;11.350;2023-03-23T06:38:52;11.30;64.20
11140;DHT22;5624;49.388;11.350;2023-03-23T06:41:17;11.40;63.90
11140;DHT22;5624;49.388;11.350;2023-03-23T06:43:43;11.40;65.20
11140;DHT22;5624;49.388;11.350;2023-03-23T06:46:09;11.50;63.90
11140;DHT22;5624;49.388;11.350;2023-03-23T06:48:35;11.50;63.80
11140;DHT22;5624;49.388;11.350;2023-03-23T06:51:00;11.40;63.90
11140;DHT22;5624;49.388;11.350;2023-03-23T06:53:27;11.50;63.30
11140;DHT22;5624;49.388;11.350;2023-03-23T06:55:53;11.40;63.80
11140;DHT22;5624;49.388;11.350;2023-03-23T06:58:18;11.40;63.50
11140;DHT22;5624;49.388;11.350;2023-03-23T07:00:44;11.40;63.80
11140;DHT22;5624;49.388;11.350;2023-03-23T07:03:11;11.50;63.80
11140;DHT22;5624;49.388;11.350;2023-03-23T07:05:36;11.50;63.20
11140;DHT22;5624;49.388;11.350;2023-03-23T07:08:03;11.50;63.40
11140;DHT22;5624;49.388;11.350;2023-03-23T07:10:29;11.60;63.60
11140;DHT22;5624;49.388;11.350;2023-03-23T07:12:55;11.60;63.30
11140;DHT22;5624;49.388;11.350;2023-03-23T07:15:20;11.70;63.10
11140;DHT22;5624;49.388;11.350;2023-03-23T07:17:47;11.70;63.10
11140;DHT22;5624;49.388;11.350;2023-03-23T07:20:14;11.70;63.20
11140;DHT22;5624;49.388;11.350;2023-03-23T07:22:40;11.80;63.10
11140;DHT22;5624;49.388;11.350;2023-03-23T07:25:06;11.80;62.80
11140;DHT22;5624;49.388;11.350;2023-03-23T07:27:33;11.90;62.50
11140;DHT22;5624;49.388;11.350;2023-03-23T07:29:59;11.90;62.50
11140;DHT22;5624;49.388;11.350;2023-03-23T07:32:24;11.90;62.70
11140;DHT22;5624;49.388;11.350;2023-03-23T07:34:50;12.00;62.40
11140;DHT22;5624;49.388;11.350;2023-03-23T07:37:16;12.10;62.20
11140;DHT22;5624;49.388;11.350;2023-03-23T07:39:42;12.10;62.30
11140;DHT22;5624;49.388;11.350;2023-03-23T07:42:08;12.20;61.50
11140;DHT22;5624;49.388;11.350;2023-03-23T07:44:34;12.30;61.60
11140;DHT22;5624;49.388;11.350;2023-03-23T07:46:59;12.40;60.70
11140;DHT22;5624;49.388;11.350;2023-03-23T07:49:25;12.50;60.30
11140;DHT22;5624;49.388;11.350;2023-03-23T07:51:52;12.60;60.00
11140;DHT22;5624;49.388;11.350;2023-03-23T07:54:17;12.80;59.70
11140;DHT22;5624;49.388;11.350;2023-03-23T07:56:44;12.90;58.90
11140;DHT22;5624;49.388;11.350;2023-03-23T07:59:11;12.90;59.30
11140;DHT22;5624;49.388;11.350;2023-03-23T08:01:38;12.90;59.60
11140;DHT22;5624;49.388;11.350;2023-03-23T08:04:04;12.90;59.70
11140;DHT22;5624;49.388;11.350;2023-03-23T08:06:33;13.00;59.90
11140;DHT22;5624;49.388;11.350;2023-03-23T08:08:59;13.10;59.80
11140;DHT22;5624;49.388;11.350;2023-03-23T08:11:25;13.10;60.20
11140;DHT22;5624;49.388;11.350;2023-03-23T08:13:52;13.20;61.70
11140;DHT22;5624;49.388;11.350;2023-03-23T08:16:18;13.40;62.30
11140;DHT22;5624;49.388;11.350;2023-03-23T08:18:45;13.70;60.20
11140;DHT22;5624;49.388;11.350;2023-03-23T08:21:11;13.90;60.90
11140;DHT22;5624;49.388;11.350;2023-03-23T08:23:38;14.20;60.20
11140;DHT22;5624;49.388;11.350;2023-03-23T08:26:08;14.30;59.00
11140;DHT22;5624;49.388;11.350;2023-03-23T08:28:35;14.30;59.60
11140;DHT22;5624;49.388;11.350;2023-03-23T08:31:08;14.20;60.00
11140;DHT22;5624;49.388;11.350;2023-03-23T08:33:36;14.00;60.50
11140;DHT22;5624;49.388;11.350;2023-03-23T08:36:02;14.00;61.10
11140;DHT22;5624;49.388;11.350;2023-03-23T08:38:28;13.80;62.70
11140;DHT22;5624;49.388;11.350;2023-03-23T08:41:03;13.80;63.10
11140;DHT22;5624;49.388;11.350;2023-03-23T08:43:30;13.70;63.90
11140;DHT22;5624;49.388;11.350;2023-03-23T08:45:57;13.70;64.20
11140;DHT22;5624;49.388;11.350;2023-03-23T08:48:23;13.50;64.90
11140;DHT22;5624;49.388;11.350;2023-03-23T08:50:49;13.50;65.80
11140;DHT22;5624;49.388;11.350;2023-03-23T08:53:15;13.30;65.90
11140;DHT22;5624;49.388;11.350;2023-03-23T08:55:41;13.30;67.10
11140;DHT22;5624;49.388;11.350;2023-03-23T08:58:08;13.20;67.10
11140;DHT22;5624;49.388;11.350;2023-03-23T09:00:34;13.10;68.50
11140;DHT22;5624;49.388;11.350;2023-03-23T09:02:59;13.10;69.00
11140;DHT22;5624;49.388;11.350;2023-03-23T09:05:27;13.10;68.90
11140;DHT22;5624;49.388;11.350;2023-03-23T09:07:55;13.10;69.50
11140;DHT22;5624;49.388;11.350;2023-03-23T09:10:25;13.00;69.90
11140;DHT22;5624;49.388;11.350;2023-03-23T09:12:52;13.10;71.00
11140;DHT22;5624;49.388;11.350;2023-03-23T09:15:18;13.10;70.20
11140;DHT22;5624;49.388;11.350;2023-03-23T09:17:46;13.20;69.50
11140;DHT22;5624;49.388;11.350;2023-03-23T09:20:15;13.30;70.20
11140;DHT22;5624;49.388;11.350;2023-03-23T09:22:43;13.30;70.30
11140;DHT22;5624;49.388;11.350;2023-03-23T09:25:14;13.30;70.10
11140;DHT22;5624;49.388;11.350;2023-03-23T09:27:41;13.30;70.40
11140;DHT22;5624;49.388;11.350;2023-03-23T09:30:10;13.40;69.30
11140;DHT22;5624;49.388;11.350;2023-03-23T09:32:37;13.70;68.80
11140;DHT22;5624;49.388;11.350;2023-03-23T09:35:05;13.80;68.90
11140;DHT22;5624;49.388;11.350;2023-03-23T09:37:37;13.90;68.80
11140;DHT22;5624;49.388;11.350;2023-03-23T09:40:04;14.00;68.20
11140;DHT22;5624;49.388;11.350;2023-03-23T09:42:35;13.90;68.90
11140;DHT22;5624;49.388;11.350;2023-03-23T09:45:26;13.80;69.30
11140;DHT22;5624;49.388;11.350;2023-03-23T09:50:35;13.80;69.50
11140;DHT22;5624;49.388;11.350;2023-03-23T09:53:12;13.80;70.60
11140;DHT22;5624;49.388;11.350;2023-03-23T09:55:39;13.80;69.80
11140;DHT22;5624;49.388;11.350;2023-03-23T09:58:29;13.70;70.10
11140;DHT22;5624;49.388;11.350;2023-03-23T10:01:02;13.70;69.80
11140;DHT22;5624;49.388;11.350;2023-03-23T10:03:43;13.60;70.20
11140;DHT22;5624;49.388;11.350;2023-03-23T10:06:15;13.70;70.50
11140;DHT22;5624;49.388;11.350;2023-03-23T10:08:52;13.90;71.10
11140;DHT22;5624;49.388;11.350;2023-03-23T10:14:19;14.30;69.20
11140;DHT22;5624;49.388;11.350;2023-03-23T10:20:17;14.60;67.00
11140;DHT22;5624;49.388;11.350;2023-03-23T10:25:35;14.90;66.70
11140;DHT22;5624;49.388;11.350;2023-03-23T10:28:10;14.80;65.50
11140;DHT22;5624;49.388;11.350;2023-03-23T10:36:00;14.80;65.80
11140;DHT22;5624;49.388;11.350;2023-03-23T10:38:34;14.60;65.30
11140;DHT22;5624;49.388;11.350;2023-03-23T10:41:14;14.80;65.50
11140;DHT22;5624;49.388;11.350;2023-03-23T10:43:41;14.90;64.60
11140;DHT22;5624;49.388;11.350;2023-03-23T10:49:21;15.10;63.50
11140;DHT22;5624;49.388;11.350;2023-03-23T10:54:51;15.30;63.00
11140;DHT22;5624;49.388;11.350;2023-03-23T10:57:26;15.30;62.70
11140;DHT22;5624;49.388;11.350;2023-03-23T11:00:03;15.30;61.90
11140;DHT22;5624;49.388;11.350;2023-03-23T11:02:39;15.20;61.90
11140;DHT22;5624;49.388;11.350;2023-03-23T11:05:18;14.90;61.00
11140;DHT22;5624;49.388;11.350;2023-03-23T11:07:55;14.90;62.00
11140;DHT22;5624;49.388;11.350;2023-03-23T11:10:26;14.90;61.80
11140;DHT22;5624;49.388;11.350;2023-03-23T11:12:53;14.80;62.40
11140;DHT22;5624;49.388;11.350;2023-03-23T11:15:28;14.70;62.20
11140;DHT22;5624;49.388;11.350;2023-03-23T11:17:55;14.60;62.60
11140;DHT22;5624;49.388;11.350;2023-03-23T11:20:25;14.60;62.30
11140;DHT22;5624;49.388;11.350;2023-03-23T11:22:52;14.30;61.90
11140;DHT22;5624;49.388;11.350;2023-03-23T11:25:17;14.40;62.10
11140;DHT22;5624;49.388;11.350;2023-03-23T11:27:43;14.40;62.70
11140;DHT22;5624;49.388;11.350;2023-03-23T11:30:20;14.40;62.40
11140;DHT22;5624;49.388;11.350;2023-03-23T11:32:47;14.40;61.70
11140;DHT22;5624;49.388;11.350;2023-03-23T11:35:21;14.40;62.30
11140;DHT22;5624;49.388;11.350;2023-03-23T11:37:51;14.50;63.10
11140;DHT22;5624;49.388;11.350;2023-03-23T11:40:30;14.30;62.80
11140;DHT22;5624;49.388;11.350;2023-03-23T11:43:07;14.30;63.10
11140;DHT22;5624;49.388;11.350;2023-03-23T11:45:38;14.40;62.80
11140;DHT22;5624;49.388;11.350;2023-03-23T11:50:50;14.50;62.30
11140;DHT22;5624;49.388;11.350;2023-03-23T11:56:26;14.40;63.70
11140;DHT22;5624;49.388;11.350;2023-03-23T11:58:54;14.50;63.50
11140;DHT22;5624;49.388;11.350;2023-03-23T12:20:29;15.30;61.00
11140;DHT22;5624;49.388;11.350;2023-03-23T12:48:03;15.30;61.30
11140;DHT22;5624;49.388;11.350;2023-03-23T12:50:43;15.50;60.10
11140;DHT22;5624;49.388;11.350;2023-03-23T12:53:25;15.70;60.30
11140;DHT22;5624;49.388;11.350;2023-03-23T12:56:21;16.00;59.50
11140;DHT22;5624;49.388;11.350;2023-03-23T12:58:52;16.20;58.70
11140;DHT22;5624;49.388;11.350;2023-03-23T13:01:26;16.30;58.30
11140;DHT22;5624;49.388;11.350;2023-03-23T13:04:07;16.10;57.50
11140;DHT22;5624;49.388;11.350;2023-03-23T13:06:37;15.90;58.10
11140;DHT22;5624;49.388;11.350;2023-03-23T13:09:11;15.30;58.90
11140;DHT22;5624;49.388;11.350;2023-03-23T13:11:40;15.10;60.40
11140;DHT22;5624;49.388;11.350;2023-03-23T13:28:24;15.00;61.80
11140;DHT22;5624;49.388;11.350;2023-03-23T13:31:14;15.10;62.10
11140;DHT22;5624;49.388;11.350;2023-03-23T13:33:46;15.30;61.70
11140;DHT22;5624;49.388;11.350;2023-03-23T13:36:14;15.30;62.20
11140;DHT22;5624;49.388;11.350;2023-03-23T13:38:49;15.40;61.40
11140;DHT22;5624;49.388;11.350;2023-03-23T13:41:17;15.40;61.20
11140;DHT22;5624;49.388;11.350;2023-03-23T13:43:46;15.50;60.70
11140;DHT22;5624;49.388;11.350;2023-03-23T13:46:28;15.40;61.30
11140;DHT22;5624;49.388;11.350;2023-03-23T13:49:15;15.30;60.90
11140;DHT22;5624;49.388;11.350;2023-03-23T13:54:24;15.10;61.10
11140;DHT22;5624;49.388;11.350;2023-03-23T13:56:57;15.20;61.00
11140;DHT22;5624;49.388;11.350;2023-03-23T14:01:57;15.60;60.30
11140;DHT22;5624;49.388;11.350;2023-03-23T14:04:42;15.60;59.90
11140;DHT22;5624;49.388;11.350;2023-03-23T14:07:11;15.80;59.80
11140;DHT22;5624;49.388;11.350;2023-03-23T14:09:40;15.80;59.30
11140;DHT22;5624;49.388;11.350;2023-03-23T14:12:26;15.80;59.80
11140;DHT22;5624;49.388;11.350;2023-03-23T14:15:01;15.80;58.90
11140;DHT22;5624;49.388;11.350;2023-03-23T14:17:31;15.90;59.60
11140;DHT22;5624;49.388;11.350;2023-03-23T14:19:59;15.90;59.90
11140;DHT22;5624;49.388;11.350;2023-03-23T14:22:36;15.90;60.40
11140;DHT22;5624;49.388;11.350;2023-03-23T14:27:38;16.00;59.40
11140;DHT22;5624;49.388;11.350;2023-03-23T14:30:06;16.10;60.50
11140;DHT22;5624;49.388;11.350;2023-03-23T14:32:33;16.20;59.70
11140;DHT22;5624;49.388;11.350;2023-03-23T14:35:04;16.20;58.90
11140;DHT22;5624;49.388;11.350;2023-03-23T14:37:31;16.10;59.20
11140;DHT22;5624;49.388;11.350;2023-03-23T14:39:58;16.10;59.50
11140;DHT22;5624;49.388;11.350;2023-03-23T14:42:35;16.00;59.50
11140;DHT22;5624;49.388;11.350;2023-03-23T14:45:04;15.80;59.50
11140;DHT22;5624;49.388;11.350;2023-03-23T14:47:34;15.70;59.80
11140;DHT22;5624;49.388;11.350;2023-03-23T14:50:03;15.50;60.90
11140;DHT22;5624;49.388;11.350;2023-03-23T14:52:38;15.50;61.80
11140;DHT22;5624;49.388;11.350;2023-03-23T14:55:17;15.40;61.00
11140;DHT22;5624;49.388;11.350;2023-03-23T14:57:44;15.50;61.20
11140;DHT22;5624;49.388;11.350;2023-03-23T15:00:39;15.60;60.90
11140;DHT22;5624;49.388;11.350;2023-03-23T15:03:10;15.60;59.90
11140;DHT22;5624;49.388;11.350;2023-03-23T15:05:44;15.60;59.60
11140;DHT22;5624;49.388;11.350;2023-03-23T15:08:18;15.50;59.70
11140;DHT22;5624;49.388;11.350;2023-03-23T15:13:26;15.30;61.00
11140;DHT22;5624;49.388;11.350;2023-03-23T15:15:52;15.30;60.20
11140;DHT22;5624;49.388;11.350;2023-03-23T15:18:30;15.30;60.50
11140;DHT22;5624;49.388;11.350;2023-03-23T15:20:57;15.40;60.50
11140;DHT22;5624;49.388;11.350;2023-03-23T15:23:28;15.40;59.50
11140;DHT22;5624;49.388;11.350;2023-03-23T15:25:55;15.40;60.60
11140;DHT22;5624;49.388;11.350;2023-03-23T15:28:32;15.30;60.70
11140;DHT22;5624;49.388;11.350;2023-03-23T15:31:02;15.20;60.70
11140;DHT22;5624;49.388;11.350;2023-03-23T15:33:36;15.10;61.30
11140;DHT22;5624;49.388;11.350;2023-03-23T15:36:07;15.00;61.10
11140;DHT22;5624;49.388;11.350;2023-03-23T15:38:34;14.90;61.90
11140;DHT22;5624;49.388;11.350;2023-03-23T15:41:06;14.80;62.60
11140;DHT22;5624;49.388;11.350;2023-03-23T15:43:53;14.70;62.70
11140;DHT22;5624;49.388;11.350;2023-03-23T15:46:23;14.60;63.00
11140;DHT22;5624;49.388;11.350;2023-03-23T15:48:52;14.50;63.40
11140;DHT22;5624;49.388;11.350;2023-03-23T15:51:21;14.50;63.30
11140;DHT22;5624;49.388;11.350;2023-03-23T15:53:49;14.40;63.70
11140;DHT22;5624;49.388;11.350;2023-03-23T15:56:16;14.40;64.00
11140;DHT22;5624;49.388;11.350;2023-03-23T15:58:42;14.40;64.40
11140;DHT22;5624;49.388;11.350;2023-03-23T16:03:53;14.30;65.30
11140;DHT22;5624;49.388;11.350;2023-03-23T16:06:23;14.30;65.00
11140;DHT22;5624;49.388;11.350;2023-03-23T16:08:49;14.30;65.00
11140;DHT22;5624;49.388;11.350;2023-03-23T16:11:17;14.30;65.00
11140;DHT22;5624;49.388;11.350;2023-03-23T16:13:43;14.30;65.50
11140;DHT22;5624;49.388;11.350;2023-03-23T16:16:19;14.30;65.50
11140;DHT22;5624;49.388;11.350;2023-03-23T16:18:46;14.30;65.40
11140;DHT22;5624;49.388;11.350;2023-03-23T16:21:12;14.30;66.00
11140;DHT22;5624;49.388;11.350;2023-03-23T16:23:38;14.20;66.50
11140;DHT22;5624;49.388;11.350;2023-03-23T16:26:05;14.20;66.60
11140;DHT22;5624;49.388;11.350;2023-03-23T16:28:31;14.10;66.40
11140;DHT22;5624;49.388;11.350;2023-03-23T16:30:57;14.10;66.70
11140;DHT22;5624;49.388;11.350;2023-03-23T16:33:22;14.00;66.90
11140;DHT22;5624;49.388;11.350;2023-03-23T16:35:48;14.00;67.20
11140;DHT22;5624;49.388;11.350;2023-03-23T16:38:15;13.90;68.20
11140;DHT22;5624;49.388;11.350;2023-03-23T16:40:43;13.80;68.40
11140;DHT22;5624;49.388;11.350;2023-03-23T16:43:09;13.90;68.20
11140;DHT22;5624;49.388;11.350;2023-03-23T16:45:36;13.80;68.40
11140;DHT22;5624;49.388;11.350;2023-03-23T16:48:02;13.80;68.30
11140;DHT22;5624;49.388;11.350;2023-03-23T16:50:29;13.80;68.60
11140;DHT22;5624;49.388;11.350;2023-03-23T16:52:55;13.70;68.90
11140;DHT22;5624;49.388;11.350;2023-03-23T16:55:21;13.70;69.20
11140;DHT22;5624;49.388;11.350;2023-03-23T16:57:47;13.60;70.50
11140;DHT22;5624;49.388;11.350;2023-03-23T17:00:15;13.50;71.20
11140;DHT22;5624;49.388;11.350;2023-03-23T17:02:45;13.50;71.90
11140;DHT22;5624;49.388;11.350;2023-03-23T17:05:11;13.40;73.10
11140;DHT22;5624;49.388;11.350;2023-03-23T17:07:38;13.50;73.40
11140;DHT22;5624;49.388;11.350;2023-03-23T17:10:04;13.40;73.80
11140;DHT22;5624;49.388;11.350;2023-03-23T17:12:31;13.30;74.40
11140;DHT22;5624;49.388;11.350;2023-03-23T17:14:56;13.30;73.90
11140;DHT22;5624;49.388;11.350;2023-03-23T17:17:23;13.40;73.80
11140;DHT22;5624;49.388;11.350;2023-03-23T17:19:48;13.30;74.10
11140;DHT22;5624;49.388;11.350;2023-03-23T17:22:14;13.30;74.40
11140;DHT22;5624;49.388;11.350;2023-03-23T17:24:40;13.20;74.00
11140;DHT22;5624;49.388;11.350;2023-03-23T17:27:06;13.10;74.50
11140;DHT22;5624;49.388;11.350;2023-03-23T17:29:31;13.10;74.50
11140;DHT22;5624;49.388;11.350;2023-03-23T17:31:57;13.10;74.30
11140;DHT22;5624;49.388;11.350;2023-03-23T17:34:23;13.10;74.70
11140;DHT22;5624;49.388;11.350;2023-03-23T17:36:48;13.10;74.90
11140;DHT22;5624;49.388;11.350;2023-03-23T17:39:14;12.90;75.40
11140;DHT22;5624;49.388;11.350;2023-03-23T17:41:40;13.00;75.00
11140;DHT22;5624;49.388;11.350;2023-03-23T17:44:06;12.90;75.00
11140;DHT22;5624;49.388;11.350;2023-03-23T17:46:32;12.90;75.00
11140;DHT22;5624;49.388;11.350;2023-03-23T17:48:58;12.90;74.70
11140;DHT22;5624;49.388;11.350;2023-03-23T17:51:23;12.90;74.30